Time;durP1;ratioP1;P1;durP2;ratioP2;P2;SDS_P1;SDS_P2;PMS_P1;PMS_P2;Temp;Humidity;BMP_temperature;BMP_pressure;BME280_temperature;BME280_humidity;BME280_pressure;Samples;Min_cycle;Max_cycle;Signal;HPM_P1;HPM_P2
2023/03/03 00:01:38;;;;;;;58.40;25.50;;;-0.70;99.90;;;;;;5052079;28;20033;-82
2023/03/03 00:04:04;;;;;;;53.22;25.70;;;-0.70;99.90;;;;;;5050579;28;20560;-82
2023/03/03 00:06:29;;;;;;;44.50;19.67;;;-0.80;99.90;;;;;;5034569;28;20021;-82
2023/03/03 00:08:56;;;;;;;41.90;19.42;;;-0.80;99.90;;;;;;5034452;28;20033;-82
2023/03/03 00:11:21;;;;;;;51.75;20.67;;;-0.90;99.90;;;;;;5034607;28;20043;-83
2023/03/03 00:13:50;;;;;;;41.97;20.00;;;-0.90;99.90;;;;;;5050911;28;20029;-82
2023/03/03 00:16:23;;;;;;;50.47;20.25;;;-1.00;99.90;;;;;;5050891;28;20392;-82
2023/03/03 00:18:50;;;;;;;50.30;21.52;;;-1.00;99.90;;;;;;5034356;28;20033;-83
2023/03/03 00:21:28;;;;;;;45.60;19.50;;;-1.20;99.90;;;;;;5051380;28;20070;-82
2023/03/03 00:24:14;;;;;;;47.78;19.42;;;-1.30;99.90;;;;;;5051674;28;20071;-83
2023/03/03 00:26:43;;;;;;;46.75;20.08;;;-1.40;99.90;;;;;;5043201;28;20025;-82
2023/03/03 00:29:29;;;;;;;51.70;20.08;;;-1.40;99.90;;;;;;5033966;28;20028;-82
2023/03/03 00:32:06;;;;;;;46.55;20.65;;;-1.40;99.90;;;;;;5050771;28;20101;-82
2023/03/03 00:34:34;;;;;;;43.88;18.83;;;-1.40;99.90;;;;;;5031269;28;20021;-82
2023/03/03 00:37:00;;;;;;;47.17;19.30;;;-1.50;99.90;;;;;;5052413;28;20029;-82
2023/03/03 00:39:36;;;;;;;48.20;19.88;;;-1.50;99.90;;;;;;5034419;28;20062;-82
2023/03/03 00:42:14;;;;;;;50.33;21.02;;;-1.50;99.90;;;;;;5051126;28;20029;-82
2023/03/03 00:44:43;;;;;;;48.80;18.75;;;-1.50;99.90;;;;;;5067196;28;20481;-82
2023/03/03 00:47:28;;;;;;;49.50;19.30;;;-1.40;99.90;;;;;;5050278;28;20091;-82
2023/03/03 00:50:04;;;;;;;46.28;19.38;;;-1.50;99.90;;;;;;5084149;28;20028;-83
2023/03/03 00:52:32;;;;;;;40.70;19.40;;;-1.50;99.90;;;;;;5047516;28;20079;-82
2023/03/03 00:54:58;;;;;;;50.70;21.45;;;-1.60;99.90;;;;;;5050646;28;20025;-83
2023/03/03 00:57:23;;;;;;;57.88;21.00;;;-1.60;99.90;;;;;;5050648;28;20083;-82
2023/03/03 00:59:50;;;;;;;44.25;19.45;;;-1.60;99.90;;;;;;5033790;28;20025;-83
2023/03/03 01:02:16;;;;;;;47.75;20.88;;;-1.60;99.90;;;;;;5050694;28;20025;-82
2023/03/03 01:04:47;;;;;;;47.47;18.83;;;-1.60;99.90;;;;;;5079742;28;20025;-82
2023/03/03 01:07:13;;;;;;;54.88;21.05;;;-1.50;99.90;;;;;;5050269;28;20081;-82
2023/03/03 01:09:39;;;;;;;49.92;22.17;;;-1.50;99.90;;;;;;5050496;28;20755;-83
2023/03/03 01:12:05;;;;;;;65.78;25.35;;;-1.60;99.90;;;;;;5050242;28;20116;-82
2023/03/03 01:14:32;;;;;;;46.85;21.88;;;-1.60;99.90;;;;;;5052376;28;20024;-82
2023/03/03 01:16:58;;;;;;;56.72;22.88;;;-1.60;99.90;;;;;;5037348;28;20036;-82
2023/03/03 01:19:24;;;;;;;49.92;21.15;;;-1.70;99.90;;;;;;5054606;28;20487;-83
2023/03/03 01:21:49;;;;;;;47.45;20.33;;;-1.70;99.90;;;;;;5036552;28;20392;-83
2023/03/03 01:24:15;;;;;;;53.63;21.70;;;-1.60;99.90;;;;;;5053834;28;20477;-82
2023/03/03 01:26:42;;;;;;;53.40;21.95;;;-1.50;99.90;;;;;;5035201;28;20029;-82
2023/03/03 01:29:08;;;;;;;48.45;21.10;;;-1.50;99.90;;;;;;5037374;28;20110;-82
2023/03/03 01:31:34;;;;;;;48.15;20.35;;;-1.30;99.90;;;;;;5037518;28;20443;-82
2023/03/03 01:33:59;;;;;;;46.47;19.88;;;-1.20;99.90;;;;;;5054016;28;20029;-82
2023/03/03 01:36:26;;;;;;;49.88;20.27;;;-1.10;99.90;;;;;;5037200;28;20112;-82
2023/03/03 01:38:53;;;;;;;49.72;18.92;;;-1.00;99.90;;;;;;5053999;28;20021;-82
2023/03/03 01:41:19;;;;;;;49.45;21.02;;;-0.70;99.90;;;;;;5037306;28;20033;-83
2023/03/03 01:43:47;;;;;;;50.00;18.95;;;-0.70;99.90;;;;;;5037117;28;20660;-82
2023/03/03 01:46:44;;;;;;;48.47;18.92;;;-0.60;99.90;;;;;;5053664;28;20025;-82
2023/03/03 01:49:33;;;;;;;50.28;20.23;;;-0.60;99.90;;;;;;5050063;28;20029;-82
2023/03/03 01:52:02;;;;;;;41.33;19.25;;;-0.60;99.90;;;;;;5053581;28;20480;-82
2023/03/03 01:54:46;;;;;;;45.00;18.60;;;-0.50;99.90;;;;;;5036814;28;20901;-82
2023/03/03 01:57:18;;;;;;;44.15;18.38;;;-0.50;99.90;;;;;;5030621;28;20029;-82
2023/03/03 01:59:48;;;;;;;41.88;18.38;;;-0.50;99.90;;;;;;5036673;28;20086;-82
2023/03/03 02:02:14;;;;;;;46.13;18.73;;;-0.60;99.90;;;;;;5036858;28;20021;-83
2023/03/03 02:04:40;;;;;;;44.13;18.42;;;-0.70;99.90;;;;;;5036687;28;20036;-82
2023/03/03 02:07:09;;;;;;;41.65;17.88;;;-0.70;99.90;;;;;;5053519;28;20032;-82
2023/03/03 02:09:57;;;;;;;40.40;17.08;;;-0.70;99.90;;;;;;5037110;28;20040;-82
2023/03/03 02:12:48;;;;;;;47.53;18.15;;;-0.70;99.90;;;;;;5054202;28;20117;-82
2023/03/03 02:15:22;;;;;;;44.75;18.58;;;-0.60;99.90;;;;;;5036884;28;20091;-82
2023/03/03 02:17:51;;;;;;;46.05;17.55;;;-0.50;99.90;;;;;;5085200;28;20052;-83
2023/03/03 02:20:32;;;;;;;41.45;17.80;;;-0.50;99.90;;;;;;5036617;28;20074;-82
2023/03/03 02:23:19;;;;;;;41.15;17.27;;;-0.40;99.90;;;;;;5053148;28;20802;-83
2023/03/03 02:25:55;;;;;;;46.58;18.30;;;-0.30;99.90;;;;;;5052353;28;20033;-82
2023/03/03 02:28:27;;;;;;;44.50;17.48;;;-0.30;99.90;;;;;;5054155;28;20025;-82
2023/03/03 02:30:54;;;;;;;41.47;19.10;;;-0.30;99.90;;;;;;5053958;28;20033;-82
2023/03/03 02:33:20;;;;;;;43.30;17.27;;;-0.30;99.90;;;;;;5035988;28;20392;-82
2023/03/03 02:35:46;;;;;;;42.10;16.90;;;-0.40;99.90;;;;;;5036055;28;20396;-82
2023/03/03 02:38:45;;;;;;;41.72;17.75;;;-0.50;99.90;;;;;;5052767;28;20024;-82
2023/03/03 02:41:36;;;;;;;38.78;16.92;;;-0.60;99.90;;;;;;5055350;28;20037;-82
2023/03/03 02:44:11;;;;;;;42.78;17.02;;;-0.60;99.90;;;;;;5036786;28;20033;-82
2023/03/03 02:46:43;;;;;;;46.92;16.50;;;-0.50;99.90;;;;;;5036005;28;20029;-82
2023/03/03 02:49:11;;;;;;;36.35;16.00;;;-0.50;99.90;;;;;;5028639;28;20499;-82
2023/03/03 02:51:38;;;;;;;43.97;19.23;;;-0.40;99.90;;;;;;5040869;28;20046;-82
2023/03/03 02:54:05;;;;;;;51.00;17.83;;;-0.40;99.90;;;;;;5030154;28;20032;-82
2023/03/03 02:56:32;;;;;;;43.97;17.20;;;-0.40;99.90;;;;;;5035409;28;20028;-82
2023/03/03 02:58:58;;;;;;;40.47;17.95;;;-0.50;99.90;;;;;;5052200;28;20025;-82
2023/03/03 03:01:24;;;;;;;42.40;17.58;;;-0.50;99.90;;;;;;5035677;28;20028;-83
2023/03/03 03:03:52;;;;;;;42.08;17.15;;;-0.50;99.90;;;;;;5052152;28;20450;-82
2023/03/03 03:06:20;;;;;;;46.28;18.23;;;-0.50;99.90;;;;;;5036747;28;20028;-82
2023/03/03 03:08:46;;;;;;;46.20;19.98;;;-0.50;99.90;;;;;;5033579;28;20036;-82
2023/03/03 03:11:12;;;;;;;38.15;17.55;;;-0.50;99.90;;;;;;5035839;28;20025;-82
2023/03/03 03:13:38;;;;;;;46.60;19.00;;;-0.50;99.90;;;;;;5035637;28;20033;-82
2023/03/03 03:16:05;;;;;;;46.05;19.42;;;-0.50;99.90;;;;;;5032014;28;20033;-82
2023/03/03 03:18:31;;;;;;;47.70;18.27;;;-0.40;99.90;;;;;;5063970;28;20032;-82
2023/03/03 03:21:05;;;;;;;46.88;18.02;;;-0.40;99.90;;;;;;5068724;28;20029;-86
2023/03/03 03:24:17;;;;;;;43.47;18.33;;;-0.40;99.90;;;;;;5067553;28;20188;-86
2023/03/03 03:26:47;;;;;;;43.47;18.25;;;-0.50;99.90;;;;;;5052996;28;20094;-86
2023/03/03 03:29:14;;;;;;;44.25;18.33;;;-0.50;99.90;;;;;;5036598;28;20029;-86
2023/03/03 03:31:39;;;;;;;40.60;17.02;;;-0.60;99.90;;;;;;5069682;28;20086;-86
2023/03/03 03:34:06;;;;;;;45.85;19.15;;;-0.50;99.90;;;;;;5036673;28;20473;-86
2023/03/03 03:36:32;;;;;;;53.40;19.50;;;-0.60;99.90;;;;;;5035459;28;20033;-86
2023/03/03 03:39:01;;;;;;;41.45;18.60;;;-0.50;99.90;;;;;;5052832;28;20382;-86
2023/03/03 03:41:28;;;;;;;47.65;18.83;;;-0.50;99.90;;;;;;5052994;28;20021;-86
2023/03/03 03:43:54;;;;;;;46.08;19.42;;;-0.40;99.90;;;;;;5036302;28;20025;-86
2023/03/03 03:46:21;;;;;;;45.83;19.50;;;-0.40;99.90;;;;;;5036559;28;20357;-86
2023/03/03 03:48:48;;;;;;;51.28;20.25;;;-0.40;99.90;;;;;;5052803;28;20025;-87
2023/03/03 03:51:16;;;;;;;48.90;18.85;;;-0.40;99.90;;;;;;5052928;28;20054;-86
2023/03/03 03:53:42;;;;;;;46.90;19.40;;;-0.50;99.90;;;;;;5036144;28;20029;-87
2023/03/03 03:56:08;;;;;;;46.97;18.98;;;-0.50;99.90;;;;;;5036168;28;20032;-87
2023/03/03 03:58:34;;;;;;;54.15;21.33;;;-0.60;99.90;;;;;;5036180;28;20028;-86
2023/03/03 04:01:05;;;;;;;51.15;21.15;;;-0.60;99.90;;;;;;5036490;28;20061;-87
2023/03/03 04:03:33;;;;;;;49.70;22.15;;;-0.50;99.90;;;;;;5035838;28;20032;-86
2023/03/03 04:06:00;;;;;;;48.17;20.58;;;-0.50;99.90;;;;;;5036236;28;20460;-86
2023/03/03 04:08:26;;;;;;;46.58;20.40;;;-0.50;99.90;;;;;;5035861;28;20042;-87
2023/03/03 04:10:53;;;;;;;49.50;21.25;;;-0.50;99.90;;;;;;5036141;28;20071;-87
2023/03/03 04:13:19;;;;;;;48.38;21.50;;;-0.50;99.90;;;;;;5052591;28;20427;-87
2023/03/03 04:15:45;;;;;;;51.75;21.10;;;-0.60;99.90;;;;;;5053462;28;20054;-87
2023/03/03 04:18:11;;;;;;;59.15;20.90;;;-0.70;99.90;;;;;;5035784;28;20075;-87
2023/03/03 04:20:39;;;;;;;52.38;21.63;;;-0.60;99.90;;;;;;5035775;28;20025;-86
2023/03/03 04:23:05;;;;;;;51.47;21.20;;;-0.70;99.90;;;;;;5035905;28;20076;-87
2023/03/03 04:25:31;;;;;;;59.72;24.40;;;-0.70;99.90;;;;;;5069136;28;20046;-87
2023/03/03 04:27:57;;;;;;;57.03;22.98;;;-0.70;99.90;;;;;;5035592;28;20029;-86
2023/03/03 04:30:23;;;;;;;48.00;20.55;;;-0.80;99.90;;;;;;5052043;28;20040;-86
2023/03/03 04:32:52;;;;;;;61.20;24.25;;;-0.80;99.90;;;;;;5035866;28;20029;-86
2023/03/03 04:35:21;;;;;;;56.60;23.63;;;-0.80;99.90;;;;;;5036213;28;20036;-87
2023/03/03 04:37:46;;;;;;;60.35;24.30;;;-0.90;99.90;;;;;;5035341;28;20028;-86
2023/03/03 04:40:12;;;;;;;68.78;25.50;;;-0.80;99.90;;;;;;5032506;28;20025;-87
2023/03/03 04:42:40;;;;;;;62.95;24.33;;;-0.80;99.90;;;;;;5064441;28;20021;-86
2023/03/03 04:45:08;;;;;;;60.92;25.52;;;-0.80;99.90;;;;;;5052313;28;20558;-87
2023/03/03 04:47:34;;;;;;;62.30;25.25;;;-0.70;99.90;;;;;;5052696;28;20025;-86
2023/03/03 04:50:00;;;;;;;69.20;25.83;;;-0.60;99.90;;;;;;5039603;28;20031;-87
2023/03/03 04:52:29;;;;;;;66.80;26.30;;;-0.50;99.90;;;;;;5056065;28;20029;-86
2023/03/03 04:54:55;;;;;;;58.72;24.13;;;-0.60;99.90;;;;;;5039472;28;20067;-86
2023/03/03 04:57:21;;;;;;;73.13;27.83;;;-0.70;99.90;;;;;;5039512;28;20071;-87
2023/03/03 04:59:47;;;;;;;73.28;27.23;;;-0.80;99.90;;;;;;5072617;28;20385;-87
2023/03/03 05:02:13;;;;;;;58.13;25.40;;;-0.90;99.90;;;;;;5055948;28;20013;-86
2023/03/03 05:04:39;;;;;;;75.95;27.33;;;-0.90;99.90;;;;;;5057283;28;20472;-86
2023/03/03 05:07:04;;;;;;;66.30;26.83;;;-0.90;99.90;;;;;;5039176;28;20115;-86
2023/03/03 05:09:30;;;;;;;62.03;27.27;;;-0.90;99.90;;;;;;5056083;28;20025;-87
2023/03/03 05:11:56;;;;;;;66.95;28.13;;;-0.90;99.90;;;;;;5055531;28;20120;-86
2023/03/03 05:14:55;;;;;;;73.93;29.83;;;-0.90;99.90;;;;;;5056863;28;20033;-87
2023/03/03 05:17:21;;;;;;;69.90;29.27;;;-0.90;99.90;;;;;;5048825;28;20044;-86
2023/03/03 05:19:46;;;;;;;78.32;29.80;;;-0.90;99.90;;;;;;5036651;28;20025;-86
2023/03/03 05:22:12;;;;;;;69.60;28.75;;;-0.90;99.90;;;;;;5055719;28;20025;-86
2023/03/03 05:25:03;;;;;;;74.78;30.48;;;-0.80;99.90;;;;;;5055361;28;20037;-86
2023/03/03 05:27:29;;;;;;;69.72;28.38;;;-0.80;99.90;;;;;;5089841;28;20354;-87
2023/03/03 05:29:54;;;;;;;74.45;29.98;;;-0.90;99.90;;;;;;5038767;28;20037;-87
2023/03/03 05:32:20;;;;;;;74.97;29.70;;;-1.00;99.90;;;;;;5055503;28;20142;-86
2023/03/03 05:34:46;;;;;;;77.00;30.73;;;-1.10;99.90;;;;;;5055113;28;20025;-86
2023/03/03 05:37:12;;;;;;;73.68;30.35;;;-1.20;99.90;;;;;;5055266;28;20115;-87
2023/03/03 05:39:38;;;;;;;82.20;31.50;;;-1.10;99.90;;;;;;5055399;28;20029;-86
2023/03/03 05:42:03;;;;;;;75.53;31.02;;;-1.20;99.90;;;;;;5054990;28;20033;-86
2023/03/03 05:44:29;;;;;;;82.00;31.40;;;-1.10;99.90;;;;;;5034967;28;20219;-86
2023/03/03 05:46:56;;;;;;;81.95;30.88;;;-1.00;99.90;;;;;;5086380;28;20468;-86
2023/03/03 05:49:22;;;;;;;76.43;31.55;;;-1.00;99.90;;;;;;5038442;28;20025;-86
2023/03/03 05:51:48;;;;;;;74.18;30.63;;;-1.10;99.90;;;;;;5038783;28;20133;-86
2023/03/03 05:54:13;;;;;;;90.97;31.92;;;-1.00;99.90;;;;;;5056586;28;20025;-86
2023/03/03 05:56:39;;;;;;;90.63;34.35;;;-1.00;99.90;;;;;;5055021;28;20108;-86
2023/03/03 05:59:05;;;;;;;85.88;32.65;;;-1.00;99.90;;;;;;5053932;28;20075;-87
2023/03/03 06:01:31;;;;;;;82.13;33.60;;;-1.00;99.90;;;;;;5054759;28;20075;-86
2023/03/03 06:03:57;;;;;;;86.13;33.47;;;-1.00;99.90;;;;;;5038240;28;20029;-86
2023/03/03 06:06:23;;;;;;;75.10;30.92;;;-0.90;99.90;;;;;;5047455;28;20491;-91
2023/03/03 06:08:48;;;;;;;90.43;32.97;;;-0.90;99.90;;;;;;5058906;28;20051;-92
2023/03/03 06:11:15;;;;;;;86.28;33.75;;;-0.90;99.90;;;;;;5059244;28;20032;-91
2023/03/03 06:13:41;;;;;;;92.80;35.15;;;-1.00;99.90;;;;;;5041218;28;20031;-91
2023/03/03 06:16:07;;;;;;;87.38;33.95;;;-1.00;99.90;;;;;;5041696;28;20033;-91
2023/03/03 06:18:33;;;;;;;91.75;33.67;;;-1.00;99.90;;;;;;5040432;28;20043;-91
2023/03/03 06:21:17;;;;;;;93.13;33.97;;;-0.90;99.90;;;;;;5056162;28;20033;-90
2023/03/03 06:23:43;;;;;;;84.95;34.35;;;-0.90;99.90;;;;;;5074254;28;20029;-91
2023/03/03 06:26:08;;;;;;;90.03;35.03;;;-0.90;99.90;;;;;;5040944;28;20056;-91
2023/03/03 06:28:34;;;;;;;88.72;33.05;;;-0.80;99.90;;;;;;5039495;28;20036;-91
2023/03/03 06:31:00;;;;;;;92.22;33.30;;;-0.90;99.90;;;;;;5037805;28;20033;-90
2023/03/03 06:33:25;;;;;;;95.43;36.70;;;-0.90;99.90;;;;;;5039598;28;20025;-91
2023/03/03 06:35:53;;;;;;;95.88;35.97;;;-1.00;99.90;;;;;;5056224;28;20029;-90
2023/03/03 06:38:19;;;;;;;98.03;35.53;;;-0.90;99.90;;;;;;5039952;28;20063;-89
2023/03/03 06:40:45;;;;;;;94.05;36.13;;;-0.90;99.90;;;;;;5056912;28;20365;-91
2023/03/03 06:43:11;;;;;;;91.03;36.67;;;-0.90;99.90;;;;;;5056354;28;20033;-91
2023/03/03 06:45:37;;;;;;;100.18;36.92;;;-0.90;99.90;;;;;;5039538;28;20028;-91
2023/03/03 06:48:03;;;;;;;101.05;35.60;;;-0.90;99.90;;;;;;5057359;28;20021;-91
2023/03/03 06:50:29;;;;;;;97.28;36.00;;;-0.90;99.90;;;;;;5056871;28;20031;-91
2023/03/03 06:53:15;;;;;;;99.97;36.35;;;-0.80;99.90;;;;;;5039640;28;20021;-91
2023/03/03 06:55:43;;;;;;;101.97;36.35;;;-0.80;99.90;;;;;;5039910;28;20033;-91
2023/03/03 06:58:18;;;;;;;93.38;36.22;;;-0.60;99.90;;;;;;5058045;28;20035;-92
2023/03/03 07:01:14;;;;;;;100.32;38.25;;;-0.50;99.90;;;;;;5057462;28;20021;-91
2023/03/03 07:03:40;;;;;;;100.57;34.60;;;-0.40;99.90;;;;;;5030420;28;20028;-92
2023/03/03 07:06:20;;;;;;;96.30;34.30;;;-0.40;99.90;;;;;;5050175;28;20029;-92
2023/03/03 07:08:46;;;;;;;98.65;36.05;;;-0.30;99.90;;;;;;5035876;28;20469;-92
2023/03/03 07:11:16;;;;;;;90.68;33.30;;;-0.30;99.90;;;;;;5034051;28;20074;-90
2023/03/03 07:13:53;;;;;;;90.13;34.92;;;-0.20;99.90;;;;;;5052048;28;20092;-90
2023/03/03 07:16:25;;;;;;;96.35;35.83;;;-0.20;99.90;;;;;;5041356;28;20033;-90
2023/03/03 07:18:56;;;;;;;;;;;-0.20;99.90;;;;;;5053631;28;20024;-90
2023/03/03 07:21:24;;;;;;;90.93;33.55;;;-0.10;99.90;;;;;;5048927;28;19909;-91
2023/03/03 07:23:53;;;;;;;87.97;34.30;;;0.00;99.90;;;;;;5041981;28;20021;-92
2023/03/03 07:26:24;;;;;;;97.07;35.67;;;0.10;99.90;;;;;;5076767;28;20110;-91
2023/03/03 07:28:57;;;;;;;113.03;40.57;;;0.20;99.90;;;;;;5059232;28;20392;-91
2023/03/03 07:31:29;;;;;;;92.78;37.45;;;0.20;99.90;;;;;;5042051;28;20068;-93
2023/03/03 07:33:58;;;;;;;119.22;39.35;;;0.20;99.90;;;;;;5050603;28;20037;-91
2023/03/03 07:36:36;;;;;;;94.78;37.00;;;0.20;99.90;;;;;;5048614;28;20465;-91
2023/03/03 07:39:28;;;;;;;87.80;35.00;;;0.30;99.90;;;;;;5047978;28;20044;-84
2023/03/03 07:42:12;;;;;;;85.50;33.85;;;0.40;99.90;;;;;;5061141;28;20392;-84
2023/03/03 07:44:38;;;;;;;97.53;38.78;;;0.50;99.90;;;;;;5039023;28;20057;-84
2023/03/03 07:47:23;;;;;;;90.13;36.35;;;0.60;99.90;;;;;;5046263;28;20037;-85
2023/03/03 07:49:52;;;;;;;134.35;53.80;;;0.70;99.90;;;;;;5033668;28;20064;-84
2023/03/03 07:52:38;;;;;;;96.57;38.17;;;0.80;99.90;;;;;;5066943;28;20064;-85
2023/03/03 07:55:26;;;;;;;92.90;34.20;;;0.90;99.90;;;;;;5045593;28;20048;-85
2023/03/03 07:57:56;;;;;;;89.45;34.20;;;1.00;99.90;;;;;;5024836;28;20026;-84
2023/03/03 08:00:27;;;;;;;85.65;32.45;;;1.00;99.90;;;;;;5032254;28;20590;-84
2023/03/03 08:03:03;;;;;;;85.05;34.70;;;1.10;99.90;;;;;;5049823;28;20025;-84
2023/03/03 08:05:34;;;;;;;89.05;34.25;;;1.20;99.90;;;;;;5038626;28;20037;-84
2023/03/03 08:08:16;;;;;;;80.32;33.00;;;1.30;99.90;;;;;;5055233;28;20083;-83
2023/03/03 08:10:51;;;;;;;85.88;32.50;;;1.40;99.90;;;;;;5048410;28;20039;-83
2023/03/03 08:13:23;;;;;;;88.80;33.75;;;1.50;99.90;;;;;;5060343;28;20037;-84
2023/03/03 08:15:59;;;;;;;86.53;34.33;;;1.60;99.90;;;;;;5047268;28;20523;-84
2023/03/03 08:18:33;;;;;;;82.50;31.92;;;1.70;99.90;;;;;;5045419;28;20029;-84
2023/03/03 08:21:11;;;;;;;77.40;31.25;;;1.80;99.90;;;;;;5053260;28;20033;-84
2023/03/03 08:23:37;;;;;;;82.35;33.00;;;1.80;99.90;;;;;;5064341;28;20388;-84
2023/03/03 08:26:03;;;;;;;82.65;32.33;;;1.90;99.90;;;;;;5013185;28;20031;-84
2023/03/03 08:28:28;;;;;;;80.82;33.22;;;2.00;99.90;;;;;;5030269;28;20064;-84
2023/03/03 08:30:54;;;;;;;78.50;31.08;;;2.10;99.90;;;;;;5049189;28;20057;-84
2023/03/03 08:33:21;;;;;;;74.95;30.17;;;2.20;99.90;;;;;;5019677;28;20391;-84
2023/03/03 08:35:47;;;;;;;78.70;32.97;;;2.20;99.90;;;;;;5052907;28;20020;-90
2023/03/03 08:38:16;;;;;;;79.90;32.00;;;2.30;99.90;;;;;;5054962;28;20027;-90
2023/03/03 08:40:42;;;;;;;81.88;33.03;;;2.30;99.90;;;;;;5048206;28;20017;-92
2023/03/03 08:43:08;;;;;;;73.18;30.55;;;2.30;99.90;;;;;;5099570;28;20056;-91
2023/03/03 08:45:35;;;;;;;72.25;30.95;;;2.40;99.90;;;;;;5055871;28;20075;-92
2023/03/03 08:48:01;;;;;;;74.93;30.60;;;2.50;99.90;;;;;;5038896;28;20037;-91
2023/03/03 08:50:28;;;;;;;79.53;32.13;;;2.50;99.90;;;;;;5060429;28;20418;-91
2023/03/03 08:52:54;;;;;;;77.03;31.27;;;2.60;99.90;;;;;;5074027;28;20047;-91
2023/03/03 08:55:20;;;;;;;75.32;30.77;;;2.80;99.90;;;;;;5054822;28;20029;-91
2023/03/03 08:57:46;;;;;;;68.07;30.55;;;2.90;99.90;;;;;;5043151;28;20029;-90
2023/03/03 09:00:16;;;;;;;78.97;32.22;;;2.90;99.90;;;;;;5088915;28;20068;-91
2023/03/03 09:02:42;;;;;;;65.95;29.98;;;3.00;99.90;;;;;;5046918;28;20091;-91
2023/03/03 09:05:09;;;;;;;80.85;33.72;;;3.10;99.90;;;;;;5056335;28;20029;-91
2023/03/03 09:07:35;;;;;;;117.43;43.45;;;3.00;99.90;;;;;;5044969;28;20029;-90
2023/03/03 09:10:00;;;;;;;74.90;31.13;;;3.10;99.90;;;;;;5063864;28;20043;-91
2023/03/03 09:12:34;;;;;;;80.93;29.60;;;3.20;99.90;;;;;;5045430;28;20026;-90
2023/03/03 09:15:11;;;;;;;76.38;32.25;;;3.20;99.90;;;;;;5051165;28;20117;-90
2023/03/03 09:17:37;;;;;;;67.80;29.95;;;3.30;99.90;;;;;;5043022;28;20024;-90
2023/03/03 09:20:38;;;;;;;71.75;30.05;;;3.40;99.90;;;;;;5078565;28;20112;-91
2023/03/03 09:23:32;;;;;;;68.75;29.67;;;3.50;99.90;;;;;;5076967;28;20059;-88
2023/03/03 09:26:26;;;;;;;72.20;27.92;;;3.60;99.90;;;;;;5057580;28;20116;-91
2023/03/03 09:28:54;;;;;;;71.03;29.50;;;3.60;99.90;;;;;;5056422;28;20027;-90
2023/03/03 09:31:25;;;;;;;63.22;27.75;;;3.70;99.90;;;;;;5060850;28;20037;-91
2023/03/03 09:33:56;;;;;;;68.05;28.38;;;3.90;99.90;;;;;;5043726;28;20033;-91
2023/03/03 09:36:29;;;;;;;64.77;28.13;;;4.50;99.90;;;;;;5045774;28;20037;-91
2023/03/03 09:38:56;;;;;;;71.97;29.90;;;5.40;99.90;;;;;;5046993;28;20032;-91
2023/03/03 09:41:47;;;;;;;60.75;28.15;;;6.30;99.90;;;;;;5047444;28;20088;-90
2023/03/03 09:44:27;;;;;;;76.82;30.02;;;6.50;99.90;;;;;;5063557;28;20075;-91
2023/03/03 09:47:12;;;;;;;64.00;29.13;;;7.00;99.90;;;;;;5056653;28;20033;-90
2023/03/03 09:50:04;;;;;;;59.20;28.73;;;7.30;99.90;;;;;;5060228;28;20332;-90
2023/03/03 09:52:45;;;;;;;60.92;28.15;;;7.90;99.90;;;;;;5038606;28;20056;-91
2023/03/03 09:55:45;;;;;;;52.20;25.83;;;8.50;99.90;;;;;;5046982;28;20490;-91
2023/03/03 09:58:30;;;;;;;54.35;27.23;;;9.00;99.90;;;;;;5045745;28;20040;-91
2023/03/03 10:01:30;;;;;;;61.00;26.98;;;9.40;99.90;;;;;;5061965;28;20481;-91
2023/03/03 10:04:20;;;;;;;55.67;26.52;;;9.20;99.90;;;;;;5030981;28;20014;-90
2023/03/03 10:06:53;;;;;;;59.45;26.40;;;9.20;99.90;;;;;;5049852;28;20040;-91
2023/03/03 10:09:46;;;;;;;60.15;27.15;;;9.50;99.90;;;;;;5044098;28;20029;-91
2023/03/03 10:12:33;;;;;;;58.47;26.60;;;10.10;99.90;;;;;;5038996;28;20127;-91
2023/03/03 10:15:20;;;;;;;58.03;28.30;;;10.50;99.90;;;;;;5055491;28;20041;-91
2023/03/03 10:17:46;;;;;;;50.63;27.90;;;10.60;99.80;;;;;;5051672;28;20039;-92
2023/03/03 10:20:33;;;;;;;53.33;26.92;;;11.00;97.90;;;;;;5038929;28;20021;-92
2023/03/03 10:23:05;;;;;;;53.67;27.38;;;11.00;97.80;;;;;;5038918;28;20033;-92
2023/03/03 10:25:45;;;;;;;49.28;26.48;;;11.20;96.00;;;;;;5056388;28;20057;-91
2023/03/03 10:28:16;;;;;;;57.05;26.13;;;10.90;95.30;;;;;;5055010;28;20469;-92
2023/03/03 10:31:05;;;;;;;52.00;26.63;;;11.10;95.10;;;;;;5038427;28;20032;-92
2023/03/03 10:33:42;;;;;;;49.60;25.52;;;11.20;93.80;;;;;;5038976;28;20518;-92
2023/03/03 10:36:08;;;;;;;54.42;25.98;;;11.80;92.60;;;;;;5039144;28;20585;-92
2023/03/03 10:38:43;;;;;;;43.17;25.38;;;11.90;91.80;;;;;;5039083;28;20029;-92
2023/03/03 10:41:30;;;;;;;44.95;24.42;;;11.70;91.60;;;;;;5055022;28;20072;-92
2023/03/03 10:44:47;;;;;;;50.13;26.38;;;11.60;91.40;;;;;;5038053;28;20082;-91
2023/03/03 10:47:27;;;;;;;82.28;27.38;;;12.00;90.90;;;;;;5054591;28;20484;-92
2023/03/03 10:50:28;;;;;;;51.70;26.13;;;12.10;90.70;;;;;;5064135;28;20115;-92
2023/03/03 10:53:26;;;;;;;44.08;25.63;;;12.00;90.60;;;;;;5043597;28;20041;-92
2023/03/03 10:56:28;;;;;;;49.30;27.02;;;12.00;90.30;;;;;;5049428;28;20029;-92
2023/03/03 10:59:30;;;;;;;56.95;30.88;;;11.70;90.50;;;;;;5047878;28;20096;-91
2023/03/03 11:02:00;;;;;;;52.45;29.00;;;11.80;90.60;;;;;;5049160;28;20096;-92
2023/03/03 11:04:38;;;;;;;55.30;28.70;;;12.30;90.50;;;;;;5043057;28;20039;-92
2023/03/03 11:07:20;;;;;;;57.53;30.60;;;12.30;90.10;;;;;;5037678;28;20029;-92
2023/03/03 11:09:58;;;;;;;53.42;28.65;;;12.30;89.50;;;;;;5046274;28;20053;-92
2023/03/03 11:12:32;;;;;;;48.40;28.85;;;11.90;88.20;;;;;;5036638;28;20033;-92
2023/03/03 11:15:33;;;;;;;61.72;30.77;;;11.90;89.80;;;;;;5031136;28;20052;-85
2023/03/03 11:18:08;;;;;;;51.70;29.45;;;12.20;88.60;;;;;;5041693;28;20033;-85
2023/03/03 11:20:49;;;;;;;49.47;26.85;;;12.40;87.80;;;;;;5033650;28;20033;-85
2023/03/03 11:23:29;;;;;;;46.35;25.98;;;12.50;89.70;;;;;;5066364;28;20021;-85
2023/03/03 11:26:27;;;;;;;50.08;26.65;;;12.90;87.70;;;;;;5034552;28;20149;-85
2023/03/03 11:28:58;;;;;;;53.53;28.75;;;12.80;86.30;;;;;;5051412;28;20035;-85
2023/03/03 11:31:42;;;;;;;;;;;12.20;87.60;;;;;;5051474;28;20037;-85
2023/03/03 11:34:27;;;;;;;47.33;26.08;;;12.50;88.20;;;;;;5051508;28;19926;-85
2023/03/03 11:37:06;;;;;;;59.67;28.23;;;13.30;85.40;;;;;;5079642;28;20037;-85
2023/03/03 11:39:32;;;;;;;45.20;26.35;;;13.80;84.80;;;;;;5034611;28;20025;-85
2023/03/03 11:42:22;;;;;;;53.38;26.45;;;13.40;83.10;;;;;;5051422;28;20503;-85
2023/03/03 11:45:05;;;;;;;43.38;25.85;;;13.40;82.50;;;;;;5034735;28;20054;-85
2023/03/03 11:47:48;;;;;;;50.97;29.05;;;13.50;81.80;;;;;;5051215;28;20480;-85
2023/03/03 11:50:42;;;;;;;44.03;24.90;;;13.60;81.80;;;;;;5034321;28;20033;-85
2023/03/03 11:53:23;;;;;;;41.58;24.90;;;14.10;82.90;;;;;;5027967;28;20032;-85
2023/03/03 11:55:57;;;;;;;44.42;24.75;;;14.20;82.30;;;;;;5031147;28;20037;-85
2023/03/03 11:58:45;;;;;;;40.00;24.13;;;13.90;81.10;;;;;;5050425;28;20033;-85
2023/03/03 12:01:27;;;;;;;41.58;24.42;;;13.70;82.10;;;;;;5027995;28;20695;-85
2023/03/03 12:03:59;;;;;;;46.65;26.75;;;12.50;85.30;;;;;;5033589;28;20044;-85
2023/03/03 12:07:02;;;;;;;41.88;24.08;;;12.10;85.30;;;;;;5051098;28;20400;-85
2023/03/03 12:09:53;;;;;;;45.78;23.65;;;12.20;86.20;;;;;;5083851;28;20544;-85
2023/03/03 12:12:23;;;;;;;65.00;30.73;;;11.70;86.70;;;;;;5050616;28;20094;-85
2023/03/03 12:15:08;;;;;;;42.63;23.50;;;11.50;87.90;;;;;;5050705;28;20131;-85
2023/03/03 12:17:41;;;;;;;47.08;24.67;;;12.00;87.50;;;;;;5050932;28;20080;-85
2023/03/03 12:20:25;;;;;;;;;;;12.00;85.80;;;;;;5034764;28;20059;-85
2023/03/03 12:23:12;;;;;;;45.13;24.95;;;12.50;84.00;;;;;;5064288;28;19915;-85
2023/03/03 12:25:45;;;;;;;49.38;29.30;;;13.30;81.50;;;;;;5043126;28;20060;-85
2023/03/03 12:28:16;;;;;;;41.38;24.98;;;13.50;80.00;;;;;;5034376;28;20206;-85
2023/03/03 12:31:04;;;;;;;45.67;25.90;;;13.50;80.80;;;;;;5034261;28;20025;-86
2023/03/03 12:33:50;;;;;;;43.45;25.25;;;13.00;82.70;;;;;;5034027;28;20020;-85
2023/03/03 12:36:40;;;;;;;42.75;23.90;;;12.40;82.10;;;;;;5033913;28;20489;-84
2023/03/03 12:39:25;;;;;;;45.92;26.33;;;12.50;83.60;;;;;;5034153;28;20051;-84
2023/03/03 12:42:29;;;;;;;46.38;25.17;;;12.20;82.80;;;;;;5044938;28;20029;-85
2023/03/03 12:45:04;;;;;;;44.58;26.27;;;11.90;83.50;;;;;;5028667;28;20431;-85
2023/03/03 12:47:38;;;;;;;44.72;23.77;;;12.30;84.20;;;;;;5033349;28;20033;-85
2023/03/03 12:50:32;;;;;;;47.25;26.05;;;12.40;83.50;;;;;;5018531;28;20461;-86
2023/03/03 12:53:06;;;;;;;58.03;25.77;;;12.10;83.60;;;;;;5043413;28;20444;-85
2023/03/03 12:55:46;;;;;;;50.20;26.08;;;12.00;84.90;;;;;;5040916;28;20037;-85
2023/03/03 12:58:19;;;;;;;54.50;26.25;;;11.80;84.90;;;;;;5057283;28;20025;-85
2023/03/03 13:01:38;;;;;;;59.47;26.80;;;11.60;84.20;;;;;;5055074;28;20078;-85
2023/03/03 13:04:19;;;;;;;46.13;23.65;;;11.50;84.10;;;;;;5047621;28;20127;-85